Rentiesville, Oklahoma
Current Conditions -  °F | °C
As of 12:53 PM on Monday 20 Oct 2014 (Local Time) from KMKO Reporting Station
Few Clouds Few Clouds  
Wind Chill: 69°   Ceiling: Unl
Heat Index: 69°   Visibility: 10mi
Dew Point: 57°   Wind: 8mph
Humidity: 65%   Direction: 210°SSW
Pressure: 30.07"   Gusts: NA
Location:  35.52°N, 95.49°W
Report Text: KMKO 201753Z AUTO 21007KT 170V240 10SM FEW050 21/14 A3007 RMK AO2 SLP180 60001 T02060139 10206 20117 $
Loading
Personal Weather Stations






























Interactive Weather Map
Tropical Storm Tracking
New forecast layout! Learn more

10-Day Weather Forecast

Advertisements
Track Severe Weather on mobile